sensor_id;sensor_type;location;lat;lon;timestamp;pressure;altitude;pressure_sealevel;temperature;humidity
9893;BME280;4985;49.092;8.542;2023-04-23T00:00:11;98728.41;;;17.82;51.97
9893;BME280;4985;49.092;8.542;2023-04-23T00:02:42;98729.44;;;17.81;51.98
9893;BME280;4985;49.092;8.542;2023-04-23T00:05:12;98731.06;;;17.82;52.00
9893;BME280;4985;49.092;8.542;2023-04-23T00:07:39;98726.56;;;17.83;51.99
9893;BME280;4985;49.092;8.542;2023-04-23T00:10:08;98733.72;;;17.82;52.01
9893;BME280;4985;49.092;8.542;2023-04-23T00:12:35;98724.12;;;17.81;51.98
9893;BME280;4985;49.092;8.542;2023-04-23T00:15:02;98726.56;;;17.83;51.98
9893;BME280;4985;49.092;8.542;2023-04-23T00:17:29;98731.88;;;17.83;51.94
9893;BME280;4985;49.092;8.542;2023-04-23T00:19:57;98731.88;;;17.83;51.93
9893;BME280;4985;49.092;8.542;2023-04-23T00:22:24;98731.06;;;17.82;51.95
9893;BME280;4985;49.092;8.542;2023-04-23T00:24:50;98731.06;;;17.82;51.93
9893;BME280;4985;49.092;8.542;2023-04-23T00:27:17;98732.69;;;17.83;51.91
9893;BME280;4985;49.092;8.542;2023-04-23T00:29:45;98738.03;;;17.83;51.94
9893;BME280;4985;49.092;8.542;2023-04-23T00:32:12;98738.03;;;17.83;51.93
9893;BME280;4985;49.092;8.542;2023-04-23T00:34:39;98736.41;;;17.82;51.98
9893;BME280;4985;49.092;8.542;2023-04-23T00:37:07;98740.91;;;17.82;52.00
9893;BME280;4985;49.092;8.542;2023-04-23T00:39:33;98740.09;;;17.81;52.01
9893;BME280;4985;49.092;8.542;2023-04-23T00:42:01;98745.41;;;17.81;52.03
9893;BME280;4985;49.092;8.542;2023-04-23T00:44:34;98743.78;;;17.80;52.04
9893;BME280;4985;49.092;8.542;2023-04-23T00:47:01;98748.31;;;17.80;52.06
9893;BME280;4985;49.092;8.542;2023-04-23T00:49:28;98753.41;;;17.81;52.02
9893;BME280;4985;49.092;8.542;2023-04-23T00:51:56;98750.75;;;17.81;52.00
9893;BME280;4985;49.092;8.542;2023-04-23T00:54:23;98747.28;;;17.81;52.02
9893;BME280;4985;49.092;8.542;2023-04-23T00:56:50;98746.22;;;17.82;52.01
9893;BME280;4985;49.092;8.542;2023-04-23T00:59:17;98742.75;;;17.81;52.01
9893;BME280;4985;49.092;8.542;2023-04-23T01:01:45;98741.94;;;17.81;51.99
9893;BME280;4985;49.092;8.542;2023-04-23T01:04:13;98745.41;;;17.81;51.98
9893;BME280;4985;49.092;8.542;2023-04-23T01:06:41;98746.22;;;17.82;51.97
9893;BME280;4985;49.092;8.542;2023-04-23T01:09:09;98740.91;;;17.82;51.94
9893;BME280;4985;49.092;8.542;2023-04-23T01:11:38;98739.88;;;17.83;51.94
9893;BME280;4985;49.092;8.542;2023-04-23T01:14:05;98741.72;;;17.82;51.95
9893;BME280;4985;49.092;8.542;2023-04-23T01:16:33;98744.37;;;17.82;51.97
9893;BME280;4985;49.092;8.542;2023-04-23T01:19:00;98740.09;;;17.81;51.96
9893;BME280;4985;49.092;8.542;2023-04-23T01:21:27;98743.78;;;17.80;51.98
9893;BME280;4985;49.092;8.542;2023-04-23T01:23:57;98745.41;;;17.81;51.97
9893;BME280;4985;49.092;8.542;2023-04-23T01:26:23;98742.75;;;17.81;51.99
9893;BME280;4985;49.092;8.542;2023-04-23T01:28:50;98739.28;;;17.81;51.97
9893;BME280;4985;49.092;8.542;2023-04-23T01:31:17;98741.94;;;17.81;51.98
9893;BME280;4985;49.092;8.542;2023-04-23T01:33:44;98736.63;;;17.81;51.99
9893;BME280;4985;49.092;8.542;2023-04-23T01:36:11;98740.31;;;17.80;52.01
9893;BME280;4985;49.092;8.542;2023-04-23T01:38:38;98736.84;;;17.79;52.00
9893;BME280;4985;49.092;8.542;2023-04-23T01:41:06;98739.72;;;17.78;52.02
9893;BME280;4985;49.092;8.542;2023-04-23T01:43:33;98738.47;;;17.80;52.02
9893;BME280;4985;49.092;8.542;2023-04-23T01:46:00;98743.78;;;17.80;52.01
9893;BME280;4985;49.092;8.542;2023-04-23T01:48:27;98743.78;;;17.80;52.01
9893;BME280;4985;49.092;8.542;2023-04-23T01:50:54;98743.78;;;17.80;52.01
9893;BME280;4985;49.092;8.542;2023-04-23T01:53:21;98743.00;;;17.80;52.02
9893;BME280;4985;49.092;8.542;2023-04-23T01:55:49;98749.13;;;17.80;52.02
9893;BME280;4985;49.092;8.542;2023-04-23T01:58:18;98756.06;;;17.81;52.03
9893;BME280;4985;49.092;8.542;2023-04-23T02:00:44;98759.78;;;17.80;52.02
9893;BME280;4985;49.092;8.542;2023-04-23T02:03:11;98754.44;;;17.80;52.02
9893;BME280;4985;49.092;8.542;2023-04-23T02:05:39;98762.66;;;17.79;52.02
9893;BME280;4985;49.092;8.542;2023-04-23T02:08:06;98760.81;;;17.79;52.02
9893;BME280;4985;49.092;8.542;2023-04-23T02:10:33;98747.91;;;17.76;52.03
9893;BME280;4985;49.092;8.542;2023-04-23T02:13:00;98755.47;;;17.79;52.04
9893;BME280;4985;49.092;8.542;2023-04-23T02:15:28;98760.81;;;17.79;52.04
9893;BME280;4985;49.092;8.542;2023-04-23T02:17:56;98765.31;;;17.79;52.05
9893;BME280;4985;49.092;8.542;2023-04-23T02:20:23;98762.66;;;17.79;52.03
9893;BME280;4985;49.092;8.542;2023-04-23T02:22:49;98758.97;;;17.80;52.03
9893;BME280;4985;49.092;8.542;2023-04-23T02:25:16;98752.81;;;17.79;52.03
9893;BME280;4985;49.092;8.542;2023-04-23T02:27:46;98757.34;;;17.79;52.03
9893;BME280;4985;49.092;8.542;2023-04-23T02:30:13;98750.16;;;17.79;52.04
9893;BME280;4985;49.092;8.542;2023-04-23T02:33:57;98741.72;;;18.30;51.17
9893;BME280;4985;49.092;8.542;2023-04-23T02:36:23;98741.72;;;18.30;51.17
9893;BME280;4985;49.092;8.542;2023-04-23T02:38:50;98743.34;;;17.83;51.87
9893;BME280;4985;49.092;8.542;2023-04-23T02:41:17;98744.84;;;17.79;51.98
9893;BME280;4985;49.092;8.542;2023-04-23T02:43:43;98742.19;;;17.79;52.01
9893;BME280;4985;49.092;8.542;2023-04-23T02:46:10;98740.56;;;17.78;52.02
9893;BME280;4985;49.092;8.542;2023-04-23T02:48:38;98745.88;;;17.78;52.03
9893;BME280;4985;49.092;8.542;2023-04-23T02:51:07;98739.72;;;17.78;52.04
9893;BME280;4985;49.092;8.542;2023-04-23T02:53:34;98756.53;;;17.78;52.04
9893;BME280;4985;49.092;8.542;2023-04-23T02:56:01;98747.69;;;17.78;52.03
9893;BME280;4985;49.092;8.542;2023-04-23T02:58:28;98752.81;;;17.79;52.01
9893;BME280;4985;49.092;8.542;2023-04-23T03:00:55;98751.19;;;17.78;52.01
9893;BME280;4985;49.092;8.542;2023-04-23T03:03:22;98745.88;;;17.78;52.02
9893;BME280;4985;49.092;8.542;2023-04-23T03:05:51;98744.03;;;17.79;52.01
9893;BME280;4985;49.092;8.542;2023-04-23T03:08:19;98750.16;;;17.79;52.01
9893;BME280;4985;49.092;8.542;2023-04-23T03:10:46;98745.88;;;17.78;52.00
9893;BME280;4985;49.092;8.542;2023-04-23T03:13:12;98752.81;;;17.79;52.00
9893;BME280;4985;49.092;8.542;2023-04-23T03:15:39;98748.31;;;17.80;51.98
9893;BME280;4985;49.092;8.542;2023-04-23T03:18:06;98745.66;;;17.80;51.98
9893;BME280;4985;49.092;8.542;2023-04-23T03:20:32;98736.22;;;17.77;51.97
9893;BME280;4985;49.092;8.542;2023-04-23T03:22:59;98745.66;;;17.80;51.97
9893;BME280;4985;49.092;8.542;2023-04-23T03:25:27;98754.44;;;17.80;51.94
9893;BME280;4985;49.092;8.542;2023-04-23T03:27:54;98748.31;;;17.80;51.97
9893;BME280;4985;49.092;8.542;2023-04-23T03:30:21;98758.16;;;17.79;51.98
9893;BME280;4985;49.092;8.542;2023-04-23T03:32:49;98753.63;;;17.80;51.98
9893;BME280;4985;49.092;8.542;2023-04-23T03:35:15;98753.88;;;17.78;51.99
9893;BME280;4985;49.092;8.542;2023-04-23T03:37:42;98757.34;;;17.79;51.98
9893;BME280;4985;49.092;8.542;2023-04-23T03:40:09;98762.66;;;17.79;51.99
9893;BME280;4985;49.092;8.542;2023-04-23T03:42:37;98754.88;;;17.77;52.00
9893;BME280;4985;49.092;8.542;2023-04-23T03:45:04;98756.53;;;17.78;52.00
9893;BME280;4985;49.092;8.542;2023-04-23T03:47:31;98756.53;;;17.78;52.00
9893;BME280;4985;49.092;8.542;2023-04-23T03:49:57;98753.03;;;17.78;51.99
9893;BME280;4985;49.092;8.542;2023-04-23T03:52:24;98755.47;;;17.79;52.00
9893;BME280;4985;49.092;8.542;2023-04-23T03:54:51;98754.88;;;17.77;51.99
9893;BME280;4985;49.092;8.542;2023-04-23T03:57:17;98754.69;;;17.79;51.99
9893;BME280;4985;49.092;8.542;2023-04-23T03:59:45;98767.16;;;17.78;51.99
9893;BME280;4985;49.092;8.542;2023-04-23T04:02:12;98764.28;;;17.80;51.99
9893;BME280;4985;49.092;8.542;2023-04-23T04:04:38;98757.34;;;17.79;51.99
9893;BME280;4985;49.092;8.542;2023-04-23T04:07:07;98761.00;;;17.78;51.97
9893;BME280;4985;49.092;8.542;2023-04-23T04:09:37;98761.00;;;17.78;51.98
9893;BME280;4985;49.092;8.542;2023-04-23T04:12:04;98763.66;;;17.78;51.99
9893;BME280;4985;49.092;8.542;2023-04-23T04:14:31;98758.56;;;17.76;51.99
9893;BME280;4985;49.092;8.542;2023-04-23T04:16:59;98763.91;;;17.76;51.99
9893;BME280;4985;49.092;8.542;2023-04-23T04:19:25;98761.22;;;17.76;51.99
9893;BME280;4985;49.092;8.542;2023-04-23T04:21:52;98761.22;;;17.76;52.00
9893;BME280;4985;49.092;8.542;2023-04-23T04:24:19;98763.09;;;17.75;52.00
9893;BME280;4985;49.092;8.542;2023-04-23T04:26:45;98760.41;;;17.75;52.00
9893;BME280;4985;49.092;8.542;2023-04-23T04:29:12;98762.28;;;17.75;52.03
9893;BME280;4985;49.092;8.542;2023-04-23T04:31:39;98763.31;;;17.74;52.02
9893;BME280;4985;49.092;8.542;2023-04-23T04:34:07;98762.28;;;17.75;52.05
9893;BME280;4985;49.092;8.542;2023-04-23T04:36:34;98760.88;;;17.72;52.05
9893;BME280;4985;49.092;8.542;2023-04-23T04:39:01;98757.41;;;17.72;52.08
9893;BME280;4985;49.092;8.542;2023-04-23T04:41:28;98764.34;;;17.73;52.09
9893;BME280;4985;49.092;8.542;2023-04-23T04:43:54;98762.72;;;17.72;52.09
9893;BME280;4985;49.092;8.542;2023-04-23T04:46:22;98771.75;;;17.71;52.09
9893;BME280;4985;49.092;8.542;2023-04-23T04:48:50;98766.41;;;17.71;52.09
9893;BME280;4985;49.092;8.542;2023-04-23T04:51:18;98775.00;;;17.73;52.07
9893;BME280;4985;49.092;8.542;2023-04-23T04:53:45;98767.22;;;17.71;52.07
9893;BME280;4985;49.092;8.542;2023-04-23T04:56:11;98773.37;;;17.72;52.08
9893;BME280;4985;49.092;8.542;2023-04-23T04:58:38;98767.22;;;17.71;52.09
9893;BME280;4985;49.092;8.542;2023-04-23T05:01:04;98771.75;;;17.71;52.08
9893;BME280;4985;49.092;8.542;2023-04-23T05:03:31;98773.37;;;17.72;52.08
9893;BME280;4985;49.092;8.542;2023-04-23T05:05:58;98773.37;;;17.72;52.08
9893;BME280;4985;49.092;8.542;2023-04-23T05:08:26;98771.97;;;17.69;52.07
9893;BME280;4985;49.092;8.542;2023-04-23T05:10:52;98772.56;;;17.71;52.07
9893;BME280;4985;49.092;8.542;2023-04-23T05:13:19;98772.56;;;17.71;52.07
9893;BME280;4985;49.092;8.542;2023-04-23T05:15:46;98768.03;;;17.72;52.06
9893;BME280;4985;49.092;8.542;2023-04-23T05:18:12;98763.75;;;17.71;52.05
9893;BME280;4985;49.092;8.542;2023-04-23T05:20:39;98768.03;;;17.72;52.06
9893;BME280;4985;49.092;8.542;2023-04-23T05:23:07;98767.22;;;17.71;52.06
9893;BME280;4985;49.092;8.542;2023-04-23T05:25:35;98761.09;;;17.71;52.06
9893;BME280;4985;49.092;8.542;2023-04-23T05:28:01;98770.94;;;17.70;52.06
9893;BME280;4985;49.092;8.542;2023-04-23T05:30:28;98773.37;;;17.72;52.07
9893;BME280;4985;49.092;8.542;2023-04-23T05:32:55;98779.72;;;17.71;52.06
9893;BME280;4985;49.092;8.542;2023-04-23T05:35:22;98770.94;;;17.70;52.06
9893;BME280;4985;49.092;8.542;2023-04-23T05:37:48;98775.44;;;17.70;52.07
9893;BME280;4985;49.092;8.542;2023-04-23T05:40:15;98772.78;;;17.70;52.07
9893;BME280;4985;49.092;8.542;2023-04-23T05:42:43;98777.06;;;17.71;52.08
9893;BME280;4985;49.092;8.542;2023-04-23T05:45:10;98771.75;;;17.71;52.07
9893;BME280;4985;49.092;8.542;2023-04-23T05:47:37;98762.72;;;17.72;52.06
9893;BME280;4985;49.092;8.542;2023-04-23T05:50:04;98759.47;;;17.70;52.07
9893;BME280;4985;49.092;8.542;2023-04-23T05:52:31;98763.75;;;17.71;52.06
9893;BME280;4985;49.092;8.542;2023-04-23T05:55:00;98765.59;;;17.70;52.07
9893;BME280;4985;49.092;8.542;2023-04-23T05:57:26;98763.75;;;17.71;52.07
9893;BME280;4985;49.092;8.542;2023-04-23T05:59:54;98762.94;;;17.70;52.06
9893;BME280;4985;49.092;8.542;2023-04-23T06:02:21;98771.75;;;17.71;52.04
9893;BME280;4985;49.092;8.542;2023-04-23T06:04:47;98767.47;;;17.70;52.05
9893;BME280;4985;49.092;8.542;2023-04-23T06:07:14;98773.37;;;17.72;52.06
9893;BME280;4985;49.092;8.542;2023-04-23T06:09:40;98766.41;;;17.71;52.04
9893;BME280;4985;49.092;8.542;2023-04-23T06:12:09;98762.72;;;17.72;52.02
9893;BME280;4985;49.092;8.542;2023-04-23T06:14:36;98768.03;;;17.72;52.03
9893;BME280;4985;49.092;8.542;2023-04-23T06:17:04;98762.72;;;17.72;52.03
9893;BME280;4985;49.092;8.542;2023-04-23T06:19:30;98771.75;;;17.71;52.05
9893;BME280;4985;49.092;8.542;2023-04-23T06:21:57;98774.19;;;17.72;52.06
9893;BME280;4985;49.092;8.542;2023-04-23T06:24:23;98766.41;;;17.71;52.07
9893;BME280;4985;49.092;8.542;2023-04-23T06:26:50;98766.41;;;17.71;52.07
9893;BME280;4985;49.092;8.542;2023-04-23T06:29:17;98762.12;;;17.70;52.09
9893;BME280;4985;49.092;8.542;2023-04-23T06:31:43;98761.09;;;17.71;52.11
9893;BME280;4985;49.092;8.542;2023-04-23T06:34:11;98757.41;;;17.72;52.11
9893;BME280;4985;49.092;8.542;2023-04-23T06:36:38;98749.63;;;17.70;52.11
9893;BME280;4985;49.092;8.542;2023-04-23T06:39:04;98755.78;;;17.71;52.13
9893;BME280;4985;49.092;8.542;2023-04-23T06:41:31;98758.44;;;17.71;52.14
9893;BME280;4985;49.092;8.542;2023-04-23T06:43:58;98749.63;;;17.70;52.14
9893;BME280;4985;49.092;8.542;2023-04-23T06:46:24;98750.44;;;17.71;52.16
9893;BME280;4985;49.092;8.542;2023-04-23T06:48:51;98751.25;;;17.71;52.15
9893;BME280;4985;49.092;8.542;2023-04-23T06:51:19;98746.75;;;17.72;52.16
9893;BME280;4985;49.092;8.542;2023-04-23T06:53:46;98751.25;;;17.71;52.16
9893;BME280;4985;49.092;8.542;2023-04-23T06:56:12;98746.75;;;17.72;52.16
9893;BME280;4985;49.092;8.542;2023-04-23T06:58:39;98736.34;;;17.70;52.15
9893;BME280;4985;49.092;8.542;2023-04-23T07:01:06;98734.28;;;17.66;52.17
9893;BME280;4985;49.092;8.542;2023-04-23T07:03:32;98745.94;;;17.71;52.17
9893;BME280;4985;49.092;8.542;2023-04-23T07:06:00;98734.47;;;17.71;52.17
9893;BME280;4985;49.092;8.542;2023-04-23T07:08:28;98735.28;;;17.71;52.17
9893;BME280;4985;49.092;8.542;2023-04-23T07:10:55;98732.62;;;17.71;52.17
9893;BME280;4985;49.092;8.542;2023-04-23T07:13:22;98731.81;;;17.71;52.18
9893;BME280;4985;49.092;8.542;2023-04-23T07:15:49;98734.47;;;17.71;52.20
9893;BME280;4985;49.092;8.542;2023-04-23T07:18:15;98723.03;;;17.70;52.20
9893;BME280;4985;49.092;8.542;2023-04-23T07:20:42;98729.16;;;17.71;52.21
9893;BME280;4985;49.092;8.542;2023-04-23T07:23:09;98729.16;;;17.71;52.21
9893;BME280;4985;49.092;8.542;2023-04-23T07:25:37;98728.56;;;17.69;52.23
9893;BME280;4985;49.092;8.542;2023-04-23T07:28:04;98724.06;;;17.69;52.22
9893;BME280;4985;49.092;8.542;2023-04-23T07:30:30;98724.88;;;17.70;52.25
9893;BME280;4985;49.092;8.542;2023-04-23T07:32:57;98722.22;;;17.70;52.25
9893;BME280;4985;49.092;8.542;2023-04-23T07:35:24;98723.84;;;17.71;52.25
9893;BME280;4985;49.092;8.542;2023-04-23T07:37:51;98719.53;;;17.70;52.25
9893;BME280;4985;49.092;8.542;2023-04-23T07:40:20;98720.34;;;17.70;52.25
9893;BME280;4985;49.092;8.542;2023-04-23T07:42:49;98713.59;;;17.68;52.28
9893;BME280;4985;49.092;8.542;2023-04-23T07:45:16;98715.84;;;17.71;52.29
9893;BME280;4985;49.092;8.542;2023-04-23T07:47:42;98715.03;;;17.70;52.28
9893;BME280;4985;49.092;8.542;2023-04-23T07:50:11;98721.16;;;17.71;52.28
9893;BME280;4985;49.092;8.542;2023-04-23T07:52:38;98715.03;;;17.70;52.30
9893;BME280;4985;49.092;8.542;2023-04-23T07:55:05;98716.28;;;17.68;52.31
9893;BME280;4985;49.092;8.542;2023-04-23T07:57:32;98713.19;;;17.71;52.33
9893;BME280;4985;49.092;8.542;2023-04-23T08:00:00;98720.13;;;17.72;52.32
9893;BME280;4985;49.092;8.542;2023-04-23T08:02:27;98717.47;;;17.72;52.32
9893;BME280;4985;49.092;8.542;2023-04-23T08:04:53;98711.09;;;17.73;52.31
9893;BME280;4985;49.092;8.542;2023-04-23T08:07:20;98708.22;;;17.74;52.32
9893;BME280;4985;49.092;8.542;2023-04-23T08:09:46;98707.41;;;17.74;52.32
9893;BME280;4985;49.092;8.542;2023-04-23T08:12:13;98697.56;;;17.74;52.33
9893;BME280;4985;49.092;8.542;2023-04-23T08:14:41;98706.59;;;17.73;52.32
9893;BME280;4985;49.092;8.542;2023-04-23T08:17:09;98696.75;;;17.74;52.33
9893;BME280;4985;49.092;8.542;2023-04-23T08:19:36;98692.00;;;17.76;52.33
9893;BME280;4985;49.092;8.542;2023-04-23T08:22:02;98681.38;;;17.76;52.32
9893;BME280;4985;49.092;8.542;2023-04-23T08:24:29;98676.66;;;17.78;52.29
9893;BME280;4985;49.092;8.542;2023-04-23T08:26:55;98682.78;;;17.79;52.30
9893;BME280;4985;49.092;8.542;2023-04-23T08:29:22;98686.47;;;17.78;52.32
9893;BME280;4985;49.092;8.542;2023-04-23T08:31:48;98684.03;;;17.76;52.32
9893;BME280;4985;49.092;8.542;2023-04-23T08:34:16;98681.16;;;17.78;52.32
9893;BME280;4985;49.092;8.542;2023-04-23T08:36:43;98684.66;;;17.78;52.29
9893;BME280;4985;49.092;8.542;2023-04-23T08:39:10;98677.25;;;17.80;52.26
9893;BME280;4985;49.092;8.542;2023-04-23T08:41:39;98679.31;;;17.78;52.26
9893;BME280;4985;49.092;8.542;2023-04-23T08:44:12;98674.59;;;17.80;52.26
9893;BME280;4985;49.092;8.542;2023-04-23T08:46:41;98677.00;;;17.82;52.25
9893;BME280;4985;49.092;8.542;2023-04-23T08:49:10;98677.00;;;17.82;52.28
9893;BME280;4985;49.092;8.542;2023-04-23T08:51:42;98667.19;;;17.82;52.28
9893;BME280;4985;49.092;8.542;2023-04-23T08:54:15;98680.25;;;17.84;52.27
9893;BME280;4985;49.092;8.542;2023-04-23T08:56:44;98671.47;;;17.83;52.28
9893;BME280;4985;49.092;8.542;2023-04-23T08:59:11;98675.97;;;17.83;52.29
9893;BME280;4985;49.092;8.542;2023-04-23T09:01:38;98669.59;;;17.84;52.32
9893;BME280;4985;49.092;8.542;2023-04-23T09:04:05;98665.91;;;17.85;52.32
9893;BME280;4985;49.092;8.542;2023-04-23T09:06:33;98665.91;;;17.85;52.31
9893;BME280;4985;49.092;8.542;2023-04-23T09:09:02;98669.38;;;17.85;52.33
9893;BME280;4985;49.092;8.542;2023-04-23T09:11:29;98669.38;;;17.85;52.33
9893;BME280;4985;49.092;8.542;2023-04-23T09:13:56;98666.72;;;17.85;52.36
9893;BME280;4985;49.092;8.542;2023-04-23T09:16:23;98657.91;;;17.85;52.38
9893;BME280;4985;49.092;8.542;2023-04-23T09:18:50;98662.19;;;17.86;52.38
9893;BME280;4985;49.092;8.542;2023-04-23T09:21:16;98663.03;;;17.86;52.38
9893;BME280;4985;49.092;8.542;2023-04-23T09:23:43;98653.19;;;17.87;52.38
9893;BME280;4985;49.092;8.542;2023-04-23T09:26:18;98654.81;;;17.88;52.40
9893;BME280;4985;49.092;8.542;2023-04-23T09:28:47;98640.91;;;17.86;52.40
9893;BME280;4985;49.092;8.542;2023-04-23T09:31:15;98634.78;;;17.85;52.41
9893;BME280;4985;49.092;8.542;2023-04-23T09:33:49;98634.31;;;17.88;52.39
9893;BME280;4985;49.092;8.542;2023-04-23T09:36:19;98630.84;;;17.88;52.39
9893;BME280;4985;49.092;8.542;2023-04-23T09:38:47;98635.94;;;17.89;52.38
9893;BME280;4985;49.092;8.542;2023-04-23T09:41:22;98637.59;;;17.90;52.38
9893;BME280;4985;49.092;8.542;2023-04-23T09:43:52;98629.59;;;17.90;52.38
9893;BME280;4985;49.092;8.542;2023-04-23T09:46:18;98627.75;;;17.91;52.38
9893;BME280;4985;49.092;8.542;2023-04-23T09:48:57;98616.06;;;17.92;52.38
9893;BME280;4985;49.092;8.542;2023-04-23T09:51:23;98607.84;;;17.93;52.38
9893;BME280;4985;49.092;8.542;2023-04-23T09:53:51;98613.16;;;17.93;52.37
9893;BME280;4985;49.092;8.542;2023-04-23T09:56:18;98612.13;;;17.94;52.37
9893;BME280;4985;49.092;8.542;2023-04-23T09:58:47;98601.69;;;17.93;52.37
9893;BME280;4985;49.092;8.542;2023-04-23T10:01:14;98601.25;;;17.96;52.36
9893;BME280;4985;49.092;8.542;2023-04-23T10:03:41;98602.03;;;17.96;52.36
9893;BME280;4985;49.092;8.542;2023-04-23T10:06:12;98603.66;;;17.97;52.37
9893;BME280;4985;49.092;8.542;2023-04-23T10:08:39;98593.47;;;17.94;52.36
9893;BME280;4985;49.092;8.542;2023-04-23T10:11:06;98586.41;;;18.00;52.38
9893;BME280;4985;49.092;8.542;2023-04-23T10:13:33;98583.75;;;18.00;52.36
9893;BME280;4985;49.092;8.542;2023-04-23T10:16:03;98579.25;;;18.00;52.37
9893;BME280;4985;49.092;8.542;2023-04-23T10:18:31;98586.41;;;18.00;52.38
9893;BME280;4985;49.092;8.542;2023-04-23T10:21:00;98576.81;;;17.99;52.41
9893;BME280;4985;49.092;8.542;2023-04-23T10:23:28;98580.28;;;17.99;52.43
9893;BME280;4985;49.092;8.542;2023-04-23T10:25:56;98573.09;;;18.00;52.44
9893;BME280;4985;49.092;8.542;2023-04-23T10:28:25;98567.56;;;18.01;52.44
9893;BME280;4985;49.092;8.542;2023-04-23T10:30:56;98573.47;;;18.03;52.44
9893;BME280;4985;49.092;8.542;2023-04-23T10:33:25;98571.62;;;18.04;52.42
9893;BME280;4985;49.092;8.542;2023-04-23T10:35:52;98562.59;;;18.05;52.44
9893;BME280;4985;49.092;8.542;2023-04-23T10:38:19;98554.59;;;18.05;52.46
9893;BME280;4985;49.092;8.542;2023-04-23T10:40:49;98554.59;;;18.05;52.46
9893;BME280;4985;49.092;8.542;2023-04-23T10:43:19;98552.53;;;18.07;52.46
9893;BME280;4985;49.092;8.542;2023-04-23T10:45:45;98542.69;;;18.08;52.45
9893;BME280;4985;49.092;8.542;2023-04-23T10:48:13;98553.09;;;18.09;52.46
9893;BME280;4985;49.092;8.542;2023-04-23T10:50:41;98550.44;;;18.09;52.47
9893;BME280;4985;49.092;8.542;2023-04-23T10:53:17;98542.44;;;18.09;52.48
9893;BME280;4985;49.092;8.542;2023-04-23T10:55:46;98537.94;;;18.10;52.49
9893;BME280;4985;49.092;8.542;2023-04-23T10:58:12;98536.88;;;18.11;52.51
9893;BME280;4985;49.092;8.542;2023-04-23T11:00:43;98535.84;;;18.12;52.53
9893;BME280;4985;49.092;8.542;2023-04-23T11:03:28;98533.19;;;18.12;52.52
9893;BME280;4985;49.092;8.542;2023-04-23T11:05:59;98527.84;;;18.12;52.53
9893;BME280;4985;49.092;8.542;2023-04-23T11:08:28;98527.66;;;18.13;52.53
9893;BME280;4985;49.092;8.542;2023-04-23T11:10:57;98530.31;;;18.13;52.55
9893;BME280;4985;49.092;8.542;2023-04-23T11:13:25;98533.78;;;18.14;52.54
9893;BME280;4985;49.092;8.542;2023-04-23T11:16:14;98529.03;;;18.16;52.58
9893;BME280;4985;49.092;8.542;2023-04-23T11:18:59;98518.38;;;18.16;52.58
9893;BME280;4985;49.092;8.542;2023-04-23T11:21:57;98520.81;;;18.17;52.59
9893;BME280;4985;49.092;8.542;2023-04-23T11:24:25;98520.00;;;18.17;52.58
9893;BME280;4985;49.092;8.542;2023-04-23T11:26:52;98510.16;;;18.17;52.58
9893;BME280;4985;49.092;8.542;2023-04-23T11:29:20;98510.16;;;18.17;52.58
9893;BME280;4985;49.092;8.542;2023-04-23T11:31:48;98506.44;;;18.18;52.58
9893;BME280;4985;49.092;8.542;2023-04-23T11:34:15;98502.50;;;18.21;52.56
9893;BME280;4985;49.092;8.542;2023-04-23T11:36:42;98493.69;;;18.20;52.55
9893;BME280;4985;49.092;8.542;2023-04-23T11:39:10;98490.81;;;18.22;52.55
9893;BME280;4985;49.092;8.542;2023-04-23T11:41:37;98487.09;;;18.23;52.55
9893;BME280;4985;49.092;8.542;2023-04-23T11:44:04;98480.38;;;18.20;52.54
9893;BME280;4985;49.092;8.542;2023-04-23T11:46:32;98480.50;;;18.25;52.53
9893;BME280;4985;49.092;8.542;2023-04-23T11:48:59;98488.50;;;18.25;52.51
9893;BME280;4985;49.092;8.542;2023-04-23T11:51:26;98478.66;;;18.26;52.53
9893;BME280;4985;49.092;8.542;2023-04-23T11:53:53;98469.84;;;18.25;52.54
9893;BME280;4985;49.092;8.542;2023-04-23T11:56:21;98463.72;;;18.25;52.56
9893;BME280;4985;49.092;8.542;2023-04-23T11:58:57;98462.19;;;18.29;52.58
9893;BME280;4985;49.092;8.542;2023-04-23T12:01:24;98452.59;;;18.28;52.59
9893;BME280;4985;49.092;8.542;2023-04-23T12:03:50;98445.97;;;18.30;52.60
9893;BME280;4985;49.092;8.542;2023-04-23T12:06:17;98443.31;;;18.30;52.61
9893;BME280;4985;49.092;8.542;2023-04-23T12:08:45;98441.47;;;18.31;52.61
9893;BME280;4985;49.092;8.542;2023-04-23T12:11:12;98443.06;;;18.32;52.60
9893;BME280;4985;49.092;8.542;2023-04-23T12:13:40;98430.56;;;18.32;52.60
9893;BME280;4985;49.092;8.542;2023-04-23T12:16:07;98425.00;;;18.34;52.60
9893;BME280;4985;49.092;8.542;2023-04-23T12:18:37;98431.97;;;18.35;52.59
9893;BME280;4985;49.092;8.542;2023-04-23T12:21:07;98416.00;;;18.35;52.58
9893;BME280;4985;49.092;8.542;2023-04-23T12:23:34;98413.91;;;18.37;52.59
9893;BME280;4985;49.092;8.542;2023-04-23T12:26:02;98407.75;;;18.37;52.58
9893;BME280;4985;49.092;8.542;2023-04-23T12:28:29;98397.91;;;18.37;52.60
9893;BME280;4985;49.092;8.542;2023-04-23T12:31:00;98397.66;;;18.39;52.61
9893;BME280;4985;49.092;8.542;2023-04-23T12:33:27;98392.09;;;18.40;52.62
9893;BME280;4985;49.092;8.542;2023-04-23T12:35:54;98392.09;;;18.40;52.64
9893;BME280;4985;49.092;8.542;2023-04-23T12:38:23;98379.81;;;18.39;52.63
9893;BME280;4985;49.092;8.542;2023-04-23T12:40:50;98388.97;;;18.43;52.61
9893;BME280;4985;49.092;8.542;2023-04-23T12:43:17;98385.25;;;18.44;52.61
9893;BME280;4985;49.092;8.542;2023-04-23T12:45:43;98377.84;;;18.46;52.60
9893;BME280;4985;49.092;8.542;2023-04-23T12:48:12;98372.28;;;18.48;52.59
9893;BME280;4985;49.092;8.542;2023-04-23T12:50:39;98372.53;;;18.46;52.60
9893;BME280;4985;49.092;8.542;2023-04-23T12:53:06;98359.78;;;18.48;52.60
9893;BME280;4985;49.092;8.542;2023-04-23T12:55:33;98357.91;;;18.49;52.60
9893;BME280;4985;49.092;8.542;2023-04-23T12:57:59;98360.34;;;18.50;52.62
9893;BME280;4985;49.092;8.542;2023-04-23T13:00:26;98360.34;;;18.50;52.62
9893;BME280;4985;49.092;8.542;2023-04-23T13:02:53;98352.09;;;18.52;52.62
9893;BME280;4985;49.092;8.542;2023-04-23T13:05:22;98343.06;;;18.53;52.62
9893;BME280;4985;49.092;8.542;2023-04-23T13:07:48;98339.34;;;18.54;52.62
9893;BME280;4985;49.092;8.542;2023-04-23T13:10:15;98328.69;;;18.54;52.63
9893;BME280;4985;49.092;8.542;2023-04-23T13:12:42;98328.44;;;18.55;52.65
9893;BME280;4985;49.092;8.542;2023-04-23T13:15:09;98330.06;;;18.56;52.66
9893;BME280;4985;49.092;8.542;2023-04-23T13:17:37;98326.38;;;18.57;52.65
9893;BME280;4985;49.092;8.542;2023-04-23T13:20:05;98313.03;;;18.57;52.66
9893;BME280;4985;49.092;8.542;2023-04-23T13:22:33;98315.47;;;18.59;52.65
9893;BME280;4985;49.092;8.542;2023-04-23T13:24:59;98316.03;;;18.61;52.64